Time;durP1;ratioP1;P1;durP2;ratioP2;P2;SDS_P1;SDS_P2;PMS_P1;PMS_P2;Temp;Humidity;BMP_temperature;BMP_pressure;BME280_temperature;BME280_humidity;BME280_pressure;Samples;Min_cycle;Max_cycle;Signal;HPM_P1;HPM_P2
2024/01/23 00:00:16;;;;;;;2.75;1.55;;;;;;;6.83;77.47;98603.84;5008383;28;20202;-74
2024/01/23 00:02:42;;;;;;;5.78;2.50;;;;;;;6.86;77.62;98608.91;5012148;28;20277;-73
2024/01/23 00:05:09;;;;;;;5.30;1.20;;;;;;;6.86;77.27;98613.44;5012310;28;20200;-73
2024/01/23 00:07:35;;;;;;;2.05;1.45;;;;;;;6.94;77.25;98600.84;5014466;28;20202;-73
2024/01/23 00:10:02;;;;;;;2.22;1.10;;;;;;;6.85;77.17;98615.28;5012001;28;20226;-73
2024/01/23 00:12:29;;;;;;;3.75;1.60;;;;;;;6.90;76.77;98614.78;5011136;28;20221;-73
2024/01/23 00:14:58;;;;;;;4.13;1.77;;;;;;;6.89;76.74;98613.13;5013850;28;20202;-73
2024/01/23 00:17:25;;;;;;;3.08;1.40;;;;;;;6.95;76.04;98615.16;5012434;28;20206;-73
2024/01/23 00:19:51;;;;;;;4.85;1.35;;;;;;;6.93;75.84;98607.25;5010068;28;20222;-73
2024/01/23 00:22:18;;;;;;;7.05;1.42;;;;;;;7.00;75.61;98610.13;5011436;28;20290;-74
2024/01/23 00:24:44;;;;;;;3.60;1.15;;;;;;;7.05;75.15;98602.41;5011894;28;20207;-73
2024/01/23 00:27:11;;;;;;;3.10;1.50;;;;;;;7.14;74.19;98609.47;5011592;28;20293;-73
2024/01/23 00:29:37;;;;;;;3.38;1.30;;;;;;;7.17;74.22;98610.97;5011260;28;20723;-73
2024/01/23 00:32:06;;;;;;;2.55;1.65;;;;;;;7.21;73.67;98602.41;5013282;28;20297;-73
2024/01/23 00:34:33;;;;;;;4.70;1.77;;;;;;;7.17;73.84;98606.44;5012143;28;21012;-73
2024/01/23 00:37:01;;;;;;;5.13;1.40;;;;;;;7.22;73.80;98608.63;5010327;28;20209;-73
2024/01/23 00:39:27;;;;;;;5.35;2.03;;;;;;;7.26;73.56;98605.44;5013534;28;20301;-74
2024/01/23 00:41:53;;;;;;;3.58;1.50;;;;;;;7.31;72.54;98600.41;5007608;28;20600;-73
2024/01/23 00:44:20;;;;;;;3.33;1.37;;;;;;;7.29;72.88;98605.09;5011780;28;20284;-73
2024/01/23 00:46:47;;;;;;;3.22;1.35;;;;;;;7.39;72.56;98613.88;5013213;28;20202;-74
2024/01/23 00:49:15;;;;;;;6.00;1.90;;;;;;;7.32;72.79;98615.53;5012723;28;20205;-74
2024/01/23 00:51:41;;;;;;;3.33;1.33;;;;;;;7.24;72.82;98612.84;5009208;28;20206;-74
2024/01/23 00:54:08;;;;;;;1.88;1.20;;;;;;;7.30;72.28;98616.72;5012088;28;20621;-74
2024/01/23 00:56:35;;;;;;;4.95;1.40;;;;;;;7.31;72.36;98608.47;5012575;28;20237;-73
2024/01/23 00:59:01;;;;;;;3.95;1.30;;;;;;;7.43;71.87;98621.63;5010219;28;20313;-74
2024/01/23 01:01:28;;;;;;;5.57;1.75;;;;;;;7.45;70.97;98603.44;5010033;28;20284;-74
2024/01/23 01:03:55;;;;;;;3.83;1.83;;;;;;;7.46;71.02;98600.56;5011224;28;20297;-74
2024/01/23 01:06:24;;;;;;;5.03;1.80;;;;;;;7.39;70.69;98607.63;5011232;28;20568;-73
2024/01/23 01:08:52;;;;;;;6.85;1.63;;;;;;;7.39;70.69;98603.09;5012817;28;20255;-73
2024/01/23 01:11:18;;;;;;;5.03;1.70;;;;;;;7.31;71.25;98621.94;5010264;28;20214;-73
2024/01/23 01:13:45;;;;;;;4.03;1.50;;;;;;;7.25;71.55;98606.44;5009925;28;20253;-74
2024/01/23 01:16:11;;;;;;;6.47;1.73;;;;;;;7.28;71.63;98614.19;5011133;28;20284;-74
2024/01/23 01:18:40;;;;;;;5.38;1.80;;;;;;;7.32;71.76;98626.31;5010748;28;20704;-74
2024/01/23 01:21:07;;;;;;;4.28;1.80;;;;;;;7.24;72.03;98628.16;5010806;28;20210;-74
2024/01/23 01:23:35;;;;;;;5.78;2.20;;;;;;;7.23;72.36;98632.69;5011510;28;20260;-74
2024/01/23 01:26:02;;;;;;;6.15;1.63;;;;;;;7.19;72.59;98633.19;5010597;28;20282;-73
2024/01/23 01:28:29;;;;;;;4.25;1.35;;;;;;;7.21;72.65;98645.47;5009023;28;20206;-73
2024/01/23 01:30:56;;;;;;;7.50;1.67;;;;;;;7.21;72.71;98634.69;5011942;28;20245;-73
2024/01/23 01:33:22;;;;;;;8.10;1.85;;;;;;;7.24;72.97;98645.13;5010126;28;20264;-74
2024/01/23 01:35:51;;;;;;;5.43;1.70;;;;;;;7.23;73.12;98662.31;5010544;28;20206;-73
2024/01/23 01:38:17;;;;;;;3.85;1.42;;;;;;;7.07;73.75;98659.59;5011215;28;20309;-74
2024/01/23 01:40:45;;;;;;;4.00;1.52;;;;;;;7.08;73.21;98666.66;5011193;28;20293;-73
2024/01/23 01:43:23;;;;;;;5.10;1.58;;;;;;;7.19;73.49;98677.09;5010932;28;20209;-73
2024/01/23 01:45:56;;;;;;;5.60;1.83;;;;;;;7.17;73.31;98668.34;5007451;28;20207;-74
2024/01/23 01:48:24;;;;;;;4.78;1.60;;;;;;;7.20;72.92;98665.31;5009354;28;20285;-74
2024/01/23 01:50:51;;;;;;;3.55;1.25;;;;;;;7.19;73.43;98677.09;5011677;28;20229;-73
2024/01/23 01:53:17;;;;;;;4.25;1.50;;;;;;;7.07;73.75;98664.97;5010680;28;21716;-74
2024/01/23 01:55:46;;;;;;;5.90;1.77;;;;;;;6.94;74.49;98672.66;5009600;28;20282;-73
2024/01/23 01:58:14;;;;;;;2.53;1.33;;;;;;;6.82;75.21;98655.16;5008942;28;20552;-73
2024/01/23 02:00:41;;;;;;;4.68;1.50;;;;;;;6.80;75.68;98670.63;5012253;28;20610;-73
2024/01/23 02:03:08;;;;;;;3.78;1.70;;;;;;;6.67;76.07;98674.59;5006061;28;20206;-74
2024/01/23 02:05:34;;;;;;;6.38;2.10;;;;;;;6.61;77.41;98679.75;5012356;28;20205;-74
2024/01/23 02:08:01;;;;;;;4.38;1.75;;;;;;;6.52;77.98;98680.72;5010480;28;20258;-74
2024/01/23 02:10:27;;;;;;;8.93;2.30;;;;;;;6.46;77.74;98674.16;5011285;28;20195;-73
2024/01/23 02:12:56;;;;;;;7.00;2.13;;;;;;;6.35;77.49;98663.69;5007935;28;20290;-74
2024/01/23 02:15:23;;;;;;;5.85;1.75;;;;;;;6.40;77.71;98688.25;5010193;28;20207;-74
2024/01/23 02:17:50;;;;;;;8.00;2.45;;;;;;;6.47;76.91;98700.06;5012066;28;20326;-74
2024/01/23 02:20:16;;;;;;;4.30;1.70;;;;;;;6.57;76.06;98678.41;5009481;28;20314;-74
2024/01/23 02:22:43;;;;;;;8.20;2.00;;;;;;;6.67;75.73;98695.25;5005306;28;20214;-74
2024/01/23 02:25:14;;;;;;;7.13;2.33;;;;;;;6.63;75.82;98697.44;5011268;28;20195;-73
2024/01/23 02:27:40;;;;;;;9.15;2.55;;;;;;;6.61;75.90;98702.13;5008251;28;20218;-74
2024/01/23 02:30:08;;;;;;;5.65;2.13;;;;;;;6.68;75.45;98695.09;5010910;28;20195;-73
2024/01/23 02:32:34;;;;;;;7.10;2.00;;;;;;;6.81;74.75;98696.50;5007188;28;20740;-73
2024/01/23 02:35:01;;;;;;;10.02;2.90;;;;;;;6.82;74.39;98704.41;5011504;28;20819;-73
2024/01/23 02:37:27;;;;;;;7.22;2.22;;;;;;;6.86;74.25;98702.22;5011081;28;20202;-73
2024/01/23 02:39:54;;;;;;;9.82;2.63;;;;;;;6.84;73.87;98690.78;5008999;28;20250;-73
2024/01/23 02:42:22;;;;;;;8.65;2.33;;;;;;;6.87;73.20;98694.00;5022896;28;20201;-74
2024/01/23 02:44:48;;;;;;;10.68;2.67;;;;;;;6.88;73.58;98706.44;5009674;28;20262;-74
2024/01/23 02:47:15;;;;;;;15.30;2.60;;;;;;;6.78;73.30;98691.44;5008702;28;20203;-74
2024/01/23 02:49:42;;;;;;;5.38;1.98;;;;;;;6.76;73.63;98671.94;5010063;28;20209;-74
2024/01/23 02:52:09;;;;;;;10.88;3.00;;;;;;;6.66;73.08;98683.66;5006991;28;20292;-73
2024/01/23 02:54:36;;;;;;;8.38;2.25;;;;;;;6.64;73.01;98685.66;5009478;28;20217;-73
2024/01/23 02:57:02;;;;;;;11.35;2.45;;;;;;;6.71;72.51;98686.72;5008303;28;20208;-74
2024/01/23 02:59:30;;;;;;;9.88;2.47;;;;;;;6.68;72.71;98697.78;5017406;28;20317;-74
2024/01/23 03:01:57;;;;;;;9.80;2.53;;;;;;;6.70;72.59;98703.00;5008586;28;20195;-74
2024/01/23 03:04:23;;;;;;;11.45;3.28;;;;;;;6.59;72.87;98696.06;5008074;28;20194;-73
2024/01/23 03:06:50;;;;;;;8.95;2.65;;;;;;;6.57;72.33;98698.06;5010747;28;20306;-73
2024/01/23 03:09:16;;;;;;;5.25;1.80;;;;;;;6.71;71.65;98702.00;5007779;28;20199;-73
2024/01/23 03:11:44;;;;;;;10.15;2.58;;;;;;;6.67;71.60;98685.34;5009428;28;20213;-73
2024/01/23 03:14:11;;;;;;;9.00;2.45;;;;;;;6.70;71.73;98701.16;5010005;28;20285;-73
2024/01/23 03:16:39;;;;;;;13.65;2.40;;;;;;;6.70;71.54;98706.53;5010932;28;20264;-73
2024/01/23 03:19:06;;;;;;;8.38;2.55;;;;;;;6.70;71.67;98700.31;5007100;28;20713;-73
2024/01/23 03:21:32;;;;;;;9.70;2.65;;;;;;;6.77;71.14;98697.84;5009877;28;20210;-73
2024/01/23 03:23:59;;;;;;;11.43;3.15;;;;;;;6.86;70.91;98711.13;5006859;28;20285;-73
2024/01/23 03:26:25;;;;;;;13.18;2.72;;;;;;;6.86;71.11;98700.38;5010373;28;20744;-73
2024/01/23 03:28:52;;;;;;;11.27;3.45;;;;;;;6.89;71.00;98716.19;5009093;28;20379;-73
2024/01/23 03:31:18;;;;;;;10.60;2.38;;;;;;;6.87;71.24;98706.59;5009770;28;20208;-74
2024/01/23 03:33:47;;;;;;;11.88;3.13;;;;;;;6.88;71.26;98721.75;5008857;28;20226;-74
2024/01/23 03:36:13;;;;;;;12.70;2.90;;;;;;;6.89;71.33;98721.56;5009962;28;20201;-73
2024/01/23 03:38:40;;;;;;;10.23;2.20;;;;;;;6.92;71.09;98731.19;5009921;28;20564;-73
2024/01/23 03:41:07;;;;;;;9.25;2.60;;;;;;;6.94;71.12;98723.78;5008743;28;20208;-74
2024/01/23 03:43:35;;;;;;;14.23;2.75;;;;;;;6.90;71.04;98736.72;5008275;28;20206;-73
2024/01/23 03:46:01;;;;;;;8.93;2.40;;;;;;;6.93;70.88;98732.84;5007750;28;20614;-74
2024/01/23 03:48:28;;;;;;;14.68;2.80;;;;;;;6.99;70.44;98732.22;5009383;28;20207;-73
2024/01/23 03:50:56;;;;;;;7.72;2.15;;;;;;;7.05;70.59;98748.56;5008321;28;20664;-73
2024/01/23 03:53:22;;;;;;;9.27;2.90;;;;;;;7.05;70.06;98753.09;5009389;28;20227;-73
2024/01/23 03:55:49;;;;;;;9.95;3.08;;;;;;;7.04;69.85;98736.13;5008827;28;20208;-74
2024/01/23 03:58:15;;;;;;;7.97;2.25;;;;;;;7.02;70.08;98742.66;5009759;28;20209;-74
2024/01/23 04:00:42;;;;;;;8.95;2.67;;;;;;;7.04;69.95;98740.66;5006327;28;20237;-74
2024/01/23 04:03:10;;;;;;;8.43;2.33;;;;;;;7.07;69.80;98746.56;5008082;28;20717;-74
2024/01/23 04:05:36;;;;;;;11.15;2.53;;;;;;;7.16;69.38;98730.41;5009535;28;20202;-74
2024/01/23 04:08:06;;;;;;;7.20;2.20;;;;;;;7.17;69.77;98738.31;5006731;28;20224;-74
2024/01/23 04:10:33;;;;;;;10.00;2.80;;;;;;;7.16;69.70;98743.88;5008570;28;20265;-73
2024/01/23 04:12:59;;;;;;;6.75;2.58;;;;;;;7.10;70.19;98737.31;5008103;28;20238;-73
2024/01/23 04:15:26;;;;;;;7.75;2.17;;;;;;;7.10;69.66;98737.31;5006067;28;20688;-73
2024/01/23 04:17:55;;;;;;;7.78;2.53;;;;;;;7.05;70.00;98732.41;5006338;28;20210;-73
2024/01/23 04:20:21;;;;;;;7.95;2.33;;;;;;;7.10;70.12;98723.84;5007898;28;20219;-74
2024/01/23 04:22:48;;;;;;;9.88;2.70;;;;;;;7.05;70.41;98742.34;5009134;28;20665;-74
2024/01/23 04:25:16;;;;;;;8.35;2.67;;;;;;;6.99;71.08;98726.84;5008452;28;20210;-74
2024/01/23 04:27:42;;;;;;;10.15;2.60;;;;;;;7.05;71.23;98747.72;5006189;28;20214;-74
2024/01/23 04:30:09;;;;;;;9.38;3.05;;;;;;;7.07;71.39;98757.31;5008851;28;20703;-74
2024/01/23 04:32:36;;;;;;;9.10;2.65;;;;;;;7.05;71.88;98755.78;5002497;28;20695;-74
2024/01/23 04:35:03;;;;;;;11.27;2.53;;;;;;;6.95;72.36;98773.91;5007376;28;20210;-74
2024/01/23 04:37:29;;;;;;;7.15;3.38;;;;;;;7.05;72.18;98780.00;5007500;28;20203;-74
2024/01/23 04:39:56;;;;;;;10.90;2.88;;;;;;;7.00;72.48;98766.19;5009477;28;20226;-74
2024/01/23 04:42:24;;;;;;;11.52;2.80;;;;;;;6.92;72.89;98768.84;5018219;28;20293;-74
2024/01/23 04:44:50;;;;;;;12.25;2.55;;;;;;;6.98;73.05;98787.03;5011251;28;20281;-74
2024/01/23 04:47:17;;;;;;;6.20;2.60;;;;;;;6.90;73.14;98779.75;5011357;28;20213;-74
2024/01/23 04:49:44;;;;;;;7.78;2.20;;;;;;;6.92;73.43;98785.00;5011639;28;20560;-74
2024/01/23 04:52:10;;;;;;;9.80;2.95;;;;;;;6.90;73.57;98787.84;5010478;28;20217;-74
2024/01/23 04:54:37;;;;;;;11.98;3.03;;;;;;;6.81;74.12;98794.19;5009257;28;20293;-74
2024/01/23 04:57:04;;;;;;;6.88;1.90;;;;;;;6.81;74.39;98793.34;5006985;28;20209;-74
2024/01/23 04:59:32;;;;;;;9.85;2.15;;;;;;;6.78;74.75;98793.66;5010623;28;20222;-74
2024/01/23 05:01:58;;;;;;;8.25;2.83;;;;;;;6.70;74.62;98800.69;5009725;28;20209;-74
2024/01/23 05:04:25;;;;;;;6.60;2.05;;;;;;;6.81;74.35;98796.88;5012779;28;20246;-74
2024/01/23 05:06:52;;;;;;;9.38;3.25;;;;;;;6.74;74.75;98820.88;5012834;28;20202;-74
2024/01/23 05:09:19;;;;;;;7.13;2.95;;;;;;;6.83;74.69;98823.59;5011087;28;20313;-74
2024/01/23 05:11:46;;;;;;;7.13;2.30;;;;;;;6.74;74.93;98831.66;5011243;28;20202;-73
2024/01/23 05:14:13;;;;;;;5.47;1.80;;;;;;;6.72;74.95;98830.97;5008842;28;20249;-72
2024/01/23 05:16:40;;;;;;;8.68;1.85;;;;;;;6.72;74.82;98843.56;5010586;28;20212;-72
2024/01/23 05:19:08;;;;;;;9.25;2.40;;;;;;;6.71;74.97;98848.09;5011666;28;20246;-71
2024/01/23 05:21:34;;;;;;;6.05;2.25;;;;;;;6.64;75.48;98847.03;5010145;28;20678;-72
2024/01/23 05:24:02;;;;;;;9.00;2.42;;;;;;;6.55;75.83;98865.94;5003298;28;20632;-72
2024/01/23 05:26:29;;;;;;;8.13;2.80;;;;;;;6.52;75.92;98868.94;5008004;28;20309;-72
2024/01/23 05:28:55;;;;;;;8.07;1.80;;;;;;;6.60;75.73;98893.22;5009178;28;20210;-72
2024/01/23 05:31:22;;;;;;;7.47;2.17;;;;;;;6.50;76.19;98892.50;5012013;28;20549;-72
2024/01/23 05:33:50;;;;;;;6.28;2.08;;;;;;;6.47;76.35;98899.03;5008349;28;20786;-73
2024/01/23 05:36:18;;;;;;;7.72;2.33;;;;;;;6.46;76.23;98902.72;5009189;28;20207;-73
2024/01/23 05:38:44;;;;;;;6.43;1.90;;;;;;;6.33;76.28;98895.03;5009028;28;20210;-72
2024/01/23 05:41:11;;;;;;;6.60;2.10;;;;;;;6.34;76.24;98909.31;5009472;28;20242;-73
2024/01/23 05:43:38;;;;;;;9.43;2.40;;;;;;;6.30;76.74;98924.03;5009928;28;20623;-73
2024/01/23 05:46:04;;;;;;;5.18;1.83;;;;;;;6.39;76.37;98917.75;5009750;28;20206;-73
2024/01/23 05:48:31;;;;;;;5.63;1.75;;;;;;;6.37;76.49;98920.59;5012104;28;20258;-73
2024/01/23 05:50:59;;;;;;;6.47;2.38;;;;;;;6.36;76.46;98931.50;5012742;28;20213;-73
2024/01/23 05:53:25;;;;;;;10.25;2.35;;;;;;;6.34;76.71;98941.56;5008862;28;20206;-75
2024/01/23 05:55:51;;;;;;;5.53;1.80;;;;;;;6.42;76.46;98949.72;5008180;28;20210;-73
2024/01/23 05:58:18;;;;;;;6.28;1.75;;;;;;;6.62;75.25;98953.09;5002547;28;20278;-75
2024/01/23 06:00:45;;;;;;;6.05;2.10;;;;;;;6.46;75.74;98953.78;5009165;28;20313;-73
2024/01/23 06:03:12;;;;;;;7.13;2.40;;;;;;;6.33;76.04;98966.75;5008842;28;20861;-73
2024/01/23 06:05:38;;;;;;;9.43;2.30;;;;;;;6.35;75.96;98967.44;5008840;28;20242;-73
2024/01/23 06:08:07;;;;;;;6.32;2.38;;;;;;;6.30;76.05;98988.56;5009390;28;20682;-73
2024/01/23 06:10:33;;;;;;;6.05;2.05;;;;;;;6.26;76.48;98976.41;5011644;28;20205;-73
2024/01/23 06:13:00;;;;;;;5.47;2.28;;;;;;;6.20;76.57;98994.00;5006929;28;20698;-74
2024/01/23 06:15:26;;;;;;;6.00;2.92;;;;;;;6.24;76.31;98998.06;5008528;28;20195;-73
2024/01/23 06:17:53;;;;;;;5.97;2.60;;;;;;;6.24;76.02;98999.91;5011217;28;20249;-73
2024/01/23 06:20:19;;;;;;;5.05;1.88;;;;;;;6.11;76.37;99010.19;5009666;28;20230;-73
2024/01/23 06:22:46;;;;;;;4.95;1.58;;;;;;;6.20;76.06;99015.50;5007725;28;20199;-73
2024/01/23 06:25:15;;;;;;;6.00;1.95;;;;;;;6.13;76.20;99016.28;5005375;28;20207;-73
2024/01/23 06:27:41;;;;;;;4.03;1.50;;;;;;;6.17;76.16;99020.34;5008887;28;20242;-73
2024/01/23 06:30:11;;;;;;;6.40;1.33;;;;;;;6.21;76.08;99005.59;5011042;28;20203;-73
2024/01/23 06:32:38;;;;;;;8.43;2.55;;;;;;;6.15;76.25;99023.19;5009746;28;21549;-73
2024/01/23 06:35:05;;;;;;;6.15;1.65;;;;;;;6.19;76.29;99035.31;5010039;28;20242;-73
2024/01/23 06:37:31;;;;;;;6.80;2.15;;;;;;;6.18;76.73;99059.63;5005677;28;20208;-73
2024/01/23 06:39:58;;;;;;;4.68;1.77;;;;;;;6.13;77.06;99062.81;5010393;28;20222;-73
2024/01/23 06:42:26;;;;;;;4.80;1.95;;;;;;;6.09;77.66;99064.09;5009006;28;20230;-73
2024/01/23 06:44:53;;;;;;;5.95;1.90;;;;;;;6.00;77.69;99073.88;5010569;28;20234;-73
2024/01/23 06:47:19;;;;;;;7.20;2.05;;;;;;;5.88;78.51;99079.53;5006449;28;20202;-73
2024/01/23 06:49:46;;;;;;;6.10;1.90;;;;;;;6.00;78.31;99095.38;5009796;28;20199;-73
2024/01/23 06:52:13;;;;;;;5.00;2.17;;;;;;;5.86;78.32;99092.25;5006442;28;20207;-74
2024/01/23 06:54:39;;;;;;;4.70;1.85;;;;;;;5.82;78.77;99102.47;5009653;28;20662;-73
2024/01/23 06:57:06;;;;;;;3.88;1.33;;;;;;;5.66;79.08;99103.06;5009978;28;20198;-73
2024/01/23 06:59:34;;;;;;;4.25;1.50;;;;;;;5.62;79.42;99116.94;5007242;28;20194;-73
2024/01/23 07:02:00;;;;;;;6.28;1.73;;;;;;;5.51;79.80;99117.97;5007952;28;20222;-73
2024/01/23 07:04:27;;;;;;;5.88;1.70;;;;;;;5.55;79.68;99126.53;5005155;28;20209;-72
2024/01/23 07:06:53;;;;;;;3.08;1.50;;;;;;;5.45;80.47;99131.94;5008761;28;20655;-73
2024/01/23 07:09:20;;;;;;;5.55;1.67;;;;;;;5.53;80.30;99139.25;5007298;28;20206;-73
2024/01/23 07:11:49;;;;;;;4.88;1.83;;;;;;;5.37;80.74;99137.19;5007979;28;20294;-73
2024/01/23 07:14:16;;;;;;;3.50;1.50;;;;;;;5.34;80.41;99135.63;5009002;28;20190;-72
2024/01/23 07:16:44;;;;;;;6.30;1.88;;;;;;;5.37;80.33;99145.22;5010445;28;20218;-74
2024/01/23 07:19:11;;;;;;;4.00;1.30;;;;;;;5.43;80.08;99173.34;5002674;28;20309;-73
2024/01/23 07:21:40;;;;;;;4.75;1.40;;;;;;;5.42;79.59;99163.59;5003529;28;20226;-73
2024/01/23 07:24:07;;;;;;;7.80;2.47;;;;;;;5.39;79.10;99159.34;5009215;28;20670;-74
2024/01/23 07:26:34;;;;;;;7.85;2.05;;;;;;;5.46;77.92;99159.66;5006244;28;20214;-73
2024/01/23 07:29:02;;;;;;;5.22;1.80;;;;;;;5.56;77.02;99171.19;5007166;28;20224;-73
2024/01/23 07:31:29;;;;;;;7.30;1.92;;;;;;;5.59;76.33;99158.34;5006554;28;20664;-74
2024/01/23 07:33:57;;;;;;;4.60;1.75;;;;;;;5.69;75.81;99169.94;5006850;28;20202;-74
2024/01/23 07:36:24;;;;;;;5.25;1.90;;;;;;;5.66;75.44;99166.69;5015807;28;20292;-71
2024/01/23 07:38:50;;;;;;;5.25;2.00;;;;;;;5.83;75.09;99160.59;5005749;28;20202;-72
2024/01/23 07:41:17;;;;;;;7.22;1.52;;;;;;;5.91;74.56;99160.72;5002990;28;20249;-72
2024/01/23 07:43:44;;;;;;;6.20;2.05;;;;;;;5.87;74.51;99161.97;5009488;28;20627;-72
2024/01/23 07:46:10;;;;;;;5.45;1.95;;;;;;;5.89;74.53;99178.81;5007055;28;20205;-74
2024/01/23 07:48:37;;;;;;;6.93;2.25;;;;;;;6.03;74.29;99191.81;5006316;28;20660;-72
2024/01/23 07:51:05;;;;;;;6.70;1.85;;;;;;;5.95;74.41;99177.41;5007239;28;20286;-72
2024/01/23 07:53:33;;;;;;;5.55;1.50;;;;;;;6.03;74.37;99186.44;5003779;28;20206;-72
2024/01/23 07:56:00;;;;;;;7.68;2.50;;;;;;;6.13;74.54;99190.94;5006424;28;20203;-72
2024/01/23 07:58:27;;;;;;;6.22;2.15;;;;;;;6.08;74.77;99194.06;5006909;28;20573;-72
2024/01/23 08:00:54;;;;;;;6.95;2.40;;;;;;;6.02;75.27;99208.06;5009933;28;20779;-71
2024/01/23 08:03:21;;;;;;;7.03;2.35;;;;;;;6.10;75.47;99199.31;5008971;28;20198;-72
2024/01/23 08:05:48;;;;;;;6.05;2.30;;;;;;;5.97;76.42;99207.66;5008514;28;20668;-72
2024/01/23 08:08:17;;;;;;;9.55;2.10;;;;;;;5.98;76.67;99210.19;5007423;28;20276;-72
2024/01/23 08:10:43;;;;;;;7.30;2.53;;;;;;;6.02;76.66;99217.00;5002461;28;20195;-72
2024/01/23 08:13:10;;;;;;;6.95;2.10;;;;;;;6.09;76.75;99227.16;5004274;28;20305;-69
2024/01/23 08:15:37;;;;;;;8.30;2.75;;;;;;;6.03;76.91;99229.44;4995297;28;20203;-72
2024/01/23 08:18:06;;;;;;;12.20;2.85;;;;;;;6.02;77.06;99249.22;5006858;28;20200;-71
2024/01/23 08:20:32;;;;;;;6.20;2.50;;;;;;;6.13;76.91;99247.38;5013212;28;20838;-71
2024/01/23 08:22:59;;;;;;;6.15;2.53;;;;;;;6.29;76.51;99250.31;5013541;28;20225;-71
2024/01/23 08:25:27;;;;;;;7.65;2.50;;;;;;;6.32;76.10;99248.19;5005924;28;21357;-71
2024/01/23 08:27:53;;;;;;;7.65;2.92;;;;;;;6.16;76.74;99242.56;5006877;28;20210;-71
2024/01/23 08:30:20;;;;;;;8.40;2.67;;;;;;;6.22;76.82;99249.19;4999183;28;20224;-71
2024/01/23 08:32:47;;;;;;;10.65;3.05;;;;;;;6.30;76.38;99242.09;5008621;28;20683;-72
2024/01/23 08:35:15;;;;;;;9.18;2.85;;;;;;;6.15;76.88;99251.63;5010550;28;20285;-71
2024/01/23 08:37:41;;;;;;;9.35;2.85;;;;;;;6.15;76.95;99254.31;5012093;28;20629;-71
2024/01/23 08:40:09;;;;;;;8.63;2.63;;;;;;;6.01;76.81;99220.66;5012781;28;20624;-71
2024/01/23 08:42:41;;;;;;;7.28;2.17;;;;;;;6.19;76.72;99250.31;5012718;28;20213;-71
2024/01/23 08:45:08;;;;;;;8.75;2.53;;;;;;;6.27;76.22;99263.03;5012358;28;20683;-72
2024/01/23 08:47:35;;;;;;;5.47;2.35;;;;;;;6.28;76.04;99264.75;5012079;28;20289;-72
2024/01/23 08:50:01;;;;;;;11.70;3.20;;;;;;;6.24;76.46;99263.34;5002401;28;20205;-72
2024/01/23 08:52:28;;;;;;;9.10;2.60;;;;;;;6.35;75.94;99266.72;5003902;28;20726;-72
2024/01/23 08:54:54;;;;;;;11.43;3.38;;;;;;;6.54;75.32;99265.81;5008367;28;21663;-72
2024/01/23 08:57:23;;;;;;;10.27;2.28;;;;;;;6.51;75.23;99271.47;5008951;28;20195;-72
2024/01/23 08:59:51;;;;;;;9.00;2.83;;;;;;;6.54;74.94;99281.09;5008577;28;20206;-72
2024/01/23 09:02:17;;;;;;;8.63;2.15;;;;;;;6.66;74.67;99279.94;5011383;28;20312;-72
2024/01/23 09:04:44;;;;;;;7.80;2.42;;;;;;;6.65;74.81;99294.38;5005978;28;20306;-72
2024/01/23 09:07:11;;;;;;;7.35;2.20;;;;;;;6.60;75.13;99300.19;5010250;28;20636;-72
2024/01/23 09:09:37;;;;;;;5.45;2.20;;;;;;;6.54;74.93;99298.06;5012047;28;20297;-72
2024/01/23 09:12:05;;;;;;;9.43;2.42;;;;;;;6.62;74.58;99294.66;5006565;28;20253;-72
2024/01/23 09:14:31;;;;;;;5.68;1.98;;;;;;;6.66;74.42;99299.59;4999381;28;20206;-72
2024/01/23 09:17:00;;;;;;;11.57;2.70;;;;;;;6.81;73.52;99302.69;5011446;28;20289;-72
2024/01/23 09:19:28;;;;;;;9.23;2.80;;;;;;;6.82;73.75;99306.22;5011497;28;20222;-72
2024/01/23 09:21:55;;;;;;;10.48;3.13;;;;;;;7.03;72.87;99304.16;5010002;28;20227;-73
2024/01/23 09:24:22;;;;;;;5.55;2.00;;;;;;;7.05;72.78;99308.38;5012948;28;20198;-72
2024/01/23 09:26:48;;;;;;;7.72;2.10;;;;;;;7.32;71.99;99317.47;5007458;28;20206;-72
2024/01/23 09:29:15;;;;;;;6.80;2.63;;;;;;;7.21;72.45;99323.88;5011661;28;20238;-72
2024/01/23 09:31:45;;;;;;;8.90;2.90;;;;;;;7.33;71.85;99320.00;5008942;28;20221;-72
2024/01/23 09:34:13;;;;;;;5.55;2.45;;;;;;;7.28;72.02;99326.81;5011472;28;20213;-73
2024/01/23 09:36:41;;;;;;;11.43;2.13;;;;;;;7.25;71.75;99344.13;5000033;28;20202;-72
2024/01/23 09:39:13;;;;;;;9.63;2.72;;;;;;;7.18;71.86;99348.41;5004866;28;20199;-72
2024/01/23 09:41:45;;;;;;;6.30;2.28;;;;;;;7.07;72.12;99351.31;5005428;28;20207;-72
2024/01/23 09:44:12;;;;;;;9.40;2.85;;;;;;;7.07;72.50;99351.31;5003351;28;20828;-72
2024/01/23 09:46:39;;;;;;;7.35;2.72;;;;;;;7.07;71.86;99359.38;5010282;28;20214;-72
2024/01/23 09:49:05;;;;;;;12.05;3.05;;;;;;;7.02;72.21;99357.13;5009945;28;20210;-72
2024/01/23 09:51:34;;;;;;;10.80;2.03;;;;;;;7.01;72.27;99359.97;5011897;28;20206;-72
2024/01/23 09:54:01;;;;;;;10.90;2.30;;;;;;;7.04;72.11;99365.91;5018579;28;20215;-71
2024/01/23 09:56:28;;;;;;;4.88;1.95;;;;;;;6.96;72.56;99368.47;5011299;28;20198;-71
2024/01/23 09:58:56;;;;;;;5.82;1.85;;;;;;;6.98;72.29;99376.41;5009920;28;20568;-72
2024/01/23 10:01:22;;;;;;;9.02;2.70;;;;;;;6.97;72.10;99374.69;5001924;28;20226;-72
2024/01/23 10:03:49;;;;;;;9.32;2.78;;;;;;;7.00;71.63;99363.66;5004373;28;20209;-72
2024/01/23 10:06:16;;;;;;;7.78;2.38;;;;;;;6.87;72.52;99366.66;5008647;28;20209;-71
2024/01/23 10:08:44;;;;;;;8.48;2.10;;;;;;;7.01;72.22;99354.59;5009692;28;20203;-72
2024/01/23 10:11:10;;;;;;;7.95;2.00;;;;;;;7.01;72.71;99360.81;5009626;28;20277;-72
2024/01/23 10:13:37;;;;;;;4.93;1.80;;;;;;;7.13;72.32;99350.72;5009660;28;20207;-72
2024/01/23 10:16:05;;;;;;;6.18;2.20;;;;;;;7.01;72.21;99355.44;5010910;28;20203;-72
2024/01/23 10:18:31;;;;;;;4.60;1.80;;;;;;;7.14;71.81;99359.66;5009958;28;21007;-72
2024/01/23 10:20:58;;;;;;;6.30;2.22;;;;;;;6.99;72.10;99356.56;5010663;28;20199;-72
2024/01/23 10:23:26;;;;;;;6.72;2.38;;;;;;;7.12;72.06;99361.63;5010786;28;20203;-72
2024/01/23 10:25:54;;;;;;;6.80;2.22;;;;;;;7.28;71.25;99361.84;5009514;28;20205;-73
2024/01/23 10:28:23;;;;;;;4.78;2.10;;;;;;;7.20;71.47;99375.19;5006758;28;20569;-73
2024/01/23 10:30:49;;;;;;;6.80;2.22;;;;;;;7.25;71.83;99368.38;4993390;28;20220;-74
2024/01/23 10:33:16;;;;;;;4.47;1.52;;;;;;;7.27;71.91;99369.06;5002656;28;20206;-74
2024/01/23 10:35:43;;;;;;;5.20;2.30;;;;;;;7.36;71.51;99370.03;5005262;28;20221;-73
2024/01/23 10:38:14;;;;;;;8.25;2.60;;;;;;;7.31;70.72;99367.78;5002834;28;20293;-74
2024/01/23 10:40:41;;;;;;;6.68;2.60;;;;;;;7.37;70.55;99364.50;5007858;28;20249;-72
2024/01/23 10:43:09;;;;;;;10.45;2.80;;;;;;;7.57;70.05;99359.00;4997855;28;20253;-75
2024/01/23 10:45:36;;;;;;;9.27;2.33;;;;;;;7.54;69.55;99367.38;5005028;28;20209;-73
2024/01/23 10:48:06;;;;;;;10.80;3.08;;;;;;;7.60;69.62;99361.38;5009587;28;20224;-73
2024/01/23 10:50:34;;;;;;;5.93;2.25;;;;;;;7.31;67.62;99373.16;5008295;28;20202;-73
2024/01/23 10:53:04;;;;;;;8.30;2.67;;;;;;;7.18;67.23;99331.41;5008265;28;20198;-73
2024/01/23 10:55:32;;;;;;;10.63;2.60;;;;;;;7.11;67.69;99357.25;5006517;28;20234;-73
2024/01/23 10:58:03;;;;;;;9.05;2.50;;;;;;;6.99;68.42;99367.34;5009123;28;20209;-73
2024/01/23 11:00:32;;;;;;;6.72;2.85;;;;;;;7.15;66.44;99359.47;5010000;28;20202;-73
2024/01/23 11:03:04;;;;;;;7.72;2.55;;;;;;;7.24;66.76;99355.91;5007148;28;20313;-73
2024/01/23 11:05:40;;;;;;;9.73;2.25;;;;;;;7.32;65.10;99347.94;5010265;28;20226;-73
2024/01/23 11:08:13;;;;;;;8.27;2.08;;;;;;;8.33;62.56;99344.13;5025710;28;20202;-73
2024/01/23 11:10:46;;;;;;;6.95;2.15;;;;;;;8.71;60.17;99339.38;5009857;28;20687;-74
2024/01/23 11:13:17;;;;;;;8.88;2.70;;;;;;;8.99;59.19;99353.56;5007565;28;20230;-74
2024/01/23 11:15:45;;;;;;;8.55;2.58;;;;;;;8.92;58.16;99347.94;5007687;28;20197;-73
2024/01/23 11:18:26;;;;;;;7.20;2.25;;;;;;;9.13;58.63;99358.34;5010671;28;20209;-73
2024/01/23 11:21:11;;;;;;;11.55;2.85;;;;;;;9.15;57.99;99355.47;5002518;28;20210;-73
2024/01/23 11:23:39;;;;;;;6.57;2.00;;;;;;;8.87;58.80;99342.16;5008954;28;20206;-73
2024/01/23 11:26:12;;;;;;;7.05;2.80;;;;;;;9.10;57.68;99343.28;5010216;28;20200;-73
2024/01/23 11:28:39;;;;;;;8.52;2.50;;;;;;;9.19;56.81;99355.00;5007254;28;20841;-73
2024/01/23 11:31:13;;;;;;;7.40;2.40;;;;;;;8.88;57.90;99353.81;5007908;28;20209;-73
2024/01/23 11:33:40;;;;;;;9.02;2.78;;;;;;;9.26;57.49;99353.34;5008541;28;20210;-73
2024/01/23 11:36:11;;;;;;;6.78;2.55;;;;;;;8.94;57.38;99358.56;4985598;28;20302;-72
2024/01/23 11:38:45;;;;;;;6.75;2.17;;;;;;;8.69;58.78;99354.88;5004399;28;20206;-74
2024/01/23 11:41:23;;;;;;;6.93;2.55;;;;;;;8.36;60.19;99369.94;5006222;28;20211;-80